Rachel, Nevada Weather observations

Data are for observation ending at time listed.
 Day   Time    Ave.   Ave.  Ave.  Vector   Max.   Stn.    Total    Solar   Ave.  
  of    of     Air    Rel.  Wind   Wind    Wind   Baro.  Precip.   Rad.    Soil  
Year   Day     Temp.  Hum.  Speed  Dir.    Gust   Pres.                    Temp. 
2015   (PST)    F      %     mph   deg.    mph     mb.     in.     W/m2     F   
------------------------------------------------------------------------------
 180    0:00   74.0    28    7.3    68      8.5   854.8    0.00       0    84.0
 180    0:10   74.6    27    5.8    65      6.8   854.8    0.00       0    83.9
 180    0:20   74.7    27    5.0    59      8.0   854.9    0.00       0    83.9
 180    0:30   76.1    26    6.8    70     10.9   854.9    0.00       0    83.7
 180    0:40   75.2    27    8.6    66     10.9   854.9    0.00       0    83.5
 180    0:50   74.7    27    8.2    72      9.6   854.9    0.00       0    83.3
 180    1:00   74.9    28    9.5    70     11.1   854.8    0.00       0    83.1
 180    1:10   74.5    28    8.6    57      9.9   854.8    0.00       0    82.9
 180    1:20   73.8    29    6.2    57      8.4   854.8    0.00       0    82.8
 180    1:30   73.7    29    5.0    62      8.3   854.8    0.00       0    82.7
 180    1:40   72.8    30    8.4    61     10.2   854.6    0.00       0    82.4
 180    1:50   73.2    30    8.3    72     10.1   854.4    0.00       0    82.2
 180    2:00   73.6    29    4.0    84      7.2   854.6    0.00       0    82.0
 180    2:10   72.9    30    2.8   252      4.6   854.7    0.00       0    82.0
 180    2:20   72.3    30    3.0   237      4.3   854.4    0.00       0    81.9
 180    2:30   70.3    30    3.7   222      4.4   854.1    0.00       0    81.8
 180    2:40   70.0    30    4.7   218      5.8   853.9    0.00       0    81.6
 180    2:50   69.5    31    5.8   219      6.4   853.8    0.00       0    81.3
 180    3:00   69.6    32    5.4   192      6.2   854.1    0.00       0    81.2
 180    3:10   69.6    32    4.2   182      5.2   854.4    0.00       0    81.0
 180    3:20   68.8    32    5.1   180      5.7   854.8    0.00       0    80.9
 180    3:30   69.0    32    5.8   180      6.4   854.9    0.00       0    80.9
 180    3:40   69.5    32    6.9   156      7.7   854.8    0.00       0    80.5
 180    3:50   70.8    32    6.6   146      7.8   854.8    0.00       0    80.3
 180    4:00   70.7    32    6.6   148      7.1   854.9    0.00       0    80.1
 180    4:10   67.0    34    5.0     6      8.3   855.1    0.00       0    79.9
 180    4:20   63.5    36    3.7     3      4.7   855.1    0.00       2    79.6
 180    4:30   62.7    38    2.7    35      3.3   855.3    0.00       3    79.2
 180    4:40   63.6    38    1.3    66      2.9   855.3    0.00       4    78.8
 180    4:50   64.2    37    4.3   114      5.4   855.3    0.00      11    78.6
 180    5:00   64.4    37    3.8    93      4.9   855.0    0.00      20    78.4
 180    5:10   65.8    36    3.2    90      4.6   855.0    0.00      43    78.5
 180    5:20   67.5    34    3.5    97      4.4   855.1    0.00      65    78.8
 180    5:30   69.4    33    2.8    96      4.5   855.4    0.00      89    79.2
 180    5:40   71.5    31    0.1    54      0.9   855.6    0.00     112    79.8
 180    5:50   72.6    30    0.1    54      1.0   855.9    0.00     135    80.6
 180    6:00   73.5    30    1.3    80      2.0   856.1    0.00     158    81.1
 180    6:10   74.6    29    0.2    81      1.5   856.3    0.00     182    81.6
 180    6:20   77.1    27    0.3    58      1.6   856.5    0.00     203    82.3
 180    6:30   77.5    27    1.9   348      3.7   856.7    0.00     223    83.0
 180    6:40   77.6    27    3.1    28      4.0   856.9    0.00     247    83.6
 180    6:50   77.8    26    2.5     7      3.9   857.1    0.00     267    84.0
 180    7:00   78.7    26    1.7     4      3.0   857.4    0.00     286    84.5
 180    7:10   79.8    25    1.1   314      2.3   857.4    0.00     310    85.0
 180    7:20   79.8    26    1.2   304      2.5   857.5    0.00     323    85.5
 180    7:30   81.8    24    1.0   328      2.2   857.7    0.00     364    86.0
 180    7:40   83.5    23    1.0   345      2.2   857.8    0.00     385    86.6
 180    7:50   83.2    23    1.4   304      3.1   857.9    0.00     405    86.9
 180    8:00   84.3    22    1.4   348      4.0   858.3    0.00     426    86.8
 180    8:10   85.8    21    1.3    19      3.1   858.4    0.00     447    86.6
 180    8:20   86.8    20    1.9    63      4.6   858.4    0.00     468    86.7
 180    8:30   88.2    20    2.5    19      5.3   858.3    0.00     488    87.3
 180    8:40   87.0    20    3.7   318      6.0   858.2    0.00     507    88.3
 180    8:50   88.8    19    0.5   260      2.6   858.3    0.00     526    88.9
 180    9:00   89.8    19    3.0   306      7.9   858.4    0.00     544    89.9
 180    9:10   89.0    19    2.4   275      4.7   858.3    0.00     560    90.4
 180    9:20   91.8    17    1.1   269      4.2   858.3    0.00     575    91.1
 180    9:30   91.6    18    2.6   157      5.3   858.3    0.00     590    91.8
 180    9:40   91.9    17    2.3   302      5.8   858.3    0.00     605    92.5
 180    9:50   92.3    17    5.1   350      8.8   858.5    0.00     617    92.9
 180   10:00   91.7    17    4.3    58      9.5   858.4    0.00     630    93.4
 180   10:10   92.2    17    4.4    40      6.9   858.4    0.00     644    93.6
 180   10:20   93.8    16    2.0   331      5.3   858.3    0.00     659    94.1
 180   10:30   94.0    15    6.1   127     11.2   858.7    0.00     677    94.7
 180   10:40   93.4    16    7.3   135     12.6   858.7    0.00     691    95.1
 180   10:50   93.8    15    8.5   147     14.5   858.6    0.00     680    95.4
 180   11:00   94.0    15    4.9   119     12.3   858.5    0.00     642    95.6
 180   11:10   93.7    15    4.5   107      9.3   858.5    0.00     429    95.5
 180   11:20   94.5    15    6.7    45     12.5   858.3    0.00     738    95.3
 180   11:30   95.5    14    6.6   247     11.5   858.3    0.00     563    95.5
 180   11:40   94.9    14    7.1   301     15.2   858.2    0.00     580    95.5
 180   11:50   95.3    14    4.3    17     10.0   858.2    0.00     430    95.5
 180   12:00   94.2    15    3.5    56      8.9   858.2    0.00     306    95.3
 180   12:10   95.6    14    4.0   318     10.5   858.0    0.00     391    95.1
 180   12:20   94.1    15    5.9   174     15.2   857.9    0.00     133    94.9
 180   12:30   94.4    15    5.2   249     10.5   857.8    0.00     679    94.8
 180   12:40   96.7    14    4.7   281     11.1   857.6    0.00     540    94.9
 180   12:50   95.1    14    5.9   283     10.3   857.6    0.00     308    94.9
 180   13:00   94.8    15    5.6   247      8.1   857.5    0.00     176    94.7
 180   13:10   94.7    15    3.8   274      8.3   857.4    0.00     257    94.5
 180   13:20   96.4    14    6.7   237     14.8   857.3    0.00     493    94.5
 180   13:30   95.5    14    9.6   239     21.3   857.2    0.00     183    94.6
 180   13:40   95.0    14    7.1   212     14.0   857.2    0.00     153    94.4
 180   13:50   95.9    14    8.2   220     14.7   856.9    0.00     605    94.2
 180   14:00   98.0    13    9.3   238     17.4   856.9    0.00     615    94.4
 180   14:10   98.1    13    8.8   249     20.5   856.9    0.00     621    94.7
 180   14:20   98.5    13    8.3   253     17.2   856.9    0.00     487    94.9

Return to St. George, Utah graphs page.


Western Regional Climate Center,wrcc@dri.edu